LDPL/PUY METAR and TAF weather

Enter ICAO airport designator
Station Type Date Time Source
LDPL METAR 2020/01/23 15:00 UTC NOAA

LDPL 231500Z 27003KT CAVOK 11/02 Q1029 NOSIG


Station Type Date Time Source
LDPL Decoded METAR 2020/01/23 15:00 UTC NOAA

Pula Aerodrome, Croatia (LDPL) 45-54N 013-55E 63M
Jan 23, 2020 - 10:00 AM EST / 2020.01.23 1500 UTC
Wind: from the W (270 degrees) at 3 MPH (3 KT):0
Visibility: greater than 7 mile(s):0
Temperature: 51 F (11 C)
Dew Point: 35 F (2 C)
Relative Humidity: 53%
Pressure (altimeter): 30.39 in. Hg (1029 hPa)
ob: LDPL 231500Z 27003KT CAVOK 11/02 Q1029 NOSIG
cycle: 15

Station Type Date Time Source
LDPL TAF 2020/01/23 12:27 UTC NOAA

TAF LDPL 231125Z 2312/2412 02005KT CAVOK TX12/2313Z TNM02/2405Z PROB30
TEMPO 2312/2315 06015KT

Example: see airport list